Time;durP1;ratioP1;P1;durP2;ratioP2;P2;SDS_P1;SDS_P2;PMS_P1;PMS_P2;Temp;Humidity;BMP_temperature;BMP_pressure;BME280_temperature;BME280_humidity;BME280_pressure;Samples;Min_cycle;Max_cycle;Signal;HPM_P1;HPM_P2
2023/02/18 00:03:11;;;;;;;;;;;;;;;10.10;100.00;96496.41;10522171;28;1949;-70
2023/02/18 00:08:14;;;;;;;;;;;;;;;10.17;100.00;96494.31;10528817;28;2743;-68
2023/02/18 00:13:16;;;;;;;;;;;;;;;10.06;100.00;96499.88;10527381;28;2704;-67
2023/02/18 00:18:19;;;;;;;;;;;;;;;10.09;100.00;96491.28;10526717;28;2340;-67
2023/02/18 00:23:21;;;;;;;;;;;;;;;10.06;100.00;96481.06;10520452;28;1947;-66
2023/02/18 00:28:24;;;;;;;;;;;;;;;9.98;100.00;96498.41;10523591;28;2763;-68
2023/02/18 00:33:26;;;;;;;;;;;;;;;9.95;100.00;96489.00;10499998;28;2632;-68
2023/02/18 00:38:28;;;;;;;;;;;;;;;9.90;100.00;96480.06;10518378;28;2621;-68
2023/02/18 00:43:31;;;;;;;;;;;;;;;9.90;100.00;96485.44;10520068;28;1939;-68
2023/02/18 00:48:33;;;;;;;;;;;;;;;9.73;100.00;96477.44;10521978;28;2249;-68
2023/02/18 00:53:36;;;;;;;;;;;;;;;9.77;100.00;96481.25;10526522;28;3231;-69
2023/02/18 00:58:38;;;;;;;;;;;;;;;9.82;100.00;96480.53;10516226;28;1982;-68
2023/02/18 01:03:40;;;;;;;;;;;;;;;9.92;100.00;96477.94;10523719;28;2298;-67
2023/02/18 01:08:43;;;;;;;;;;;;;;;9.96;100.00;96463.75;10521980;28;1969;-67
2023/02/18 01:13:45;;;;;;;;;;;;;;;10.01;100.00;96463.81;10530196;28;2557;-67
2023/02/18 01:18:47;;;;;;;;;;;;;;;10.08;100.00;96477.03;10525394;28;2025;-69
2023/02/18 01:23:50;;;;;;;;;;;;;;;10.07;100.00;96463.88;10525183;28;2310;-69
2023/02/18 01:28:52;;;;;;;;;;;;;;;9.93;100.00;96474.22;10517371;28;2638;-71
2023/02/18 01:33:54;;;;;;;;;;;;;;;9.77;100.00;96459.78;10518866;28;1955;-68
2023/02/18 01:38:57;;;;;;;;;;;;;;;9.62;100.00;96463.13;10520074;28;2311;-76
2023/02/18 01:44:00;;;;;;;;;;;;;;;9.50;100.00;96462.44;10519995;28;2735;-67
2023/02/18 01:49:03;;;;;;;;;;;;;;;9.46;100.00;96466.66;10516496;28;2636;-67
2023/02/18 01:54:05;;;;;;;;;;;;;;;9.36;100.00;96463.88;10522904;28;2412;-68
2023/02/18 01:59:07;;;;;;;;;;;;;;;9.30;100.00;96454.13;10521205;28;2085;-68
2023/02/18 02:04:10;;;;;;;;;;;;;;;9.37;100.00;96460.13;10516851;28;1964;-67
2023/02/18 02:09:12;;;;;;;;;;;;;;;9.44;100.00;96444.63;10526617;28;1978;-67
2023/02/18 02:14:14;;;;;;;;;;;;;;;9.44;100.00;96458.06;10523129;28;2145;-67
2023/02/18 02:19:17;;;;;;;;;;;;;;;9.37;100.00;96447.50;10528759;28;2104;-67
2023/02/18 02:24:20;;;;;;;;;;;;;;;9.44;100.00;96437.41;10527297;28;2648;-68
2023/02/18 02:29:22;;;;;;;;;;;;;;;9.42;100.00;96436.84;10529604;28;2105;-69
2023/02/18 02:34:24;;;;;;;;;;;;;;;9.54;100.00;96444.75;10522039;28;2626;-68
2023/02/18 02:39:27;;;;;;;;;;;;;;;9.62;100.00;96443.50;10529191;28;2541;-67
2023/02/18 02:44:29;;;;;;;;;;;;;;;9.72;100.00;96441.75;10527514;28;2673;-68
2023/02/18 02:49:31;;;;;;;;;;;;;;;9.86;100.00;96436.81;10508306;28;2624;-68
2023/02/18 02:54:34;;;;;;;;;;;;;;;9.91;100.00;96434.16;10530753;28;1931;-69
2023/02/18 02:59:36;;;;;;;;;;;;;;;9.90;100.00;96420.97;10529029;28;1962;-68
2023/02/18 03:04:39;;;;;;;;;;;;;;;9.85;100.00;96428.97;10507064;28;2692;-67
2023/02/18 03:09:41;;;;;;;;;;;;;;;9.89;100.00;96427.44;10525734;28;2360;-68
2023/02/18 03:14:43;;;;;;;;;;;;;;;9.94;100.00;96416.75;10526509;28;2293;-67
2023/02/18 03:19:45;;;;;;;;;;;;;;;10.01;100.00;96414.66;10529699;28;2337;-69
2023/02/18 03:24:48;;;;;;;;;;;;;;;10.02;100.00;96422.47;10530312;28;2330;-68
2023/02/18 03:29:50;;;;;;;;;;;;;;;10.07;100.00;96416.31;10507472;28;2668;-69
2023/02/18 03:34:52;;;;;;;;;;;;;;;10.05;100.00;96423.81;10524783;28;2348;-70
2023/02/18 03:39:55;;;;;;;;;;;;;;;10.10;100.00;96418.50;10524759;28;2529;-70
2023/02/18 03:44:58;;;;;;;;;;;;;;;10.11;100.00;96409.38;10526971;28;2039;-69
2023/02/18 03:50:00;;;;;;;;;;;;;;;10.13;100.00;96412.63;10523279;28;2729;-69
2023/02/18 03:55:02;;;;;;;;;;;;;;;10.08;100.00;96404.50;10513565;28;2050;-68
2023/02/18 04:00:05;;;;;;;;;;;;;;;10.07;100.00;96397.53;10525189;28;2320;-68
2023/02/18 04:05:07;;;;;;;;;;;;;;;10.14;100.00;96406.19;10526331;28;1993;-70
2023/02/18 04:10:10;;;;;;;;;;;;;;;10.07;100.00;96410.97;10528131;28;1942;-67
2023/02/18 04:15:12;;;;;;;;;;;;;;;10.00;100.00;96407.66;10527083;28;2040;-68
2023/02/18 04:20:15;;;;;;;;;;;;;;;9.85;100.00;96407.50;10523015;28;2002;-68
2023/02/18 04:25:17;;;;;;;;;;;;;;;9.72;100.00;96409.53;10522475;28;2602;-67
2023/02/18 04:30:20;;;;;;;;;;;;;;;9.66;100.00;96407.84;10524551;28;2065;-69
2023/02/18 04:35:22;;;;;;;;;;;;;;;9.65;100.00;96411.59;10503757;28;2769;-68
2023/02/18 04:40:28;;;;;;;;;;;;;;;9.77;100.00;96416.03;10521883;28;1978;-67
2023/02/18 04:45:31;;;;;;;;;;;;;;;9.73;100.00;96411.16;10522790;28;2648;-69
2023/02/18 04:50:33;;;;;;;;;;;;;;;9.77;100.00;96426.75;10522503;28;2104;-68
2023/02/18 04:55:35;;;;;;;;;;;;;;;9.68;100.00;96424.53;10524305;28;2953;-68
2023/02/18 05:00:38;;;;;;;;;;;;;;;9.72;100.00;96414.88;10524687;28;2647;-69
2023/02/18 05:05:41;;;;;;;;;;;;;;;9.82;100.00;96429.50;10519381;28;2023;-67
2023/02/18 05:10:43;;;;;;;;;;;;;;;9.81;100.00;96423.31;10523219;28;2153;-67
2023/02/18 05:15:45;;;;;;;;;;;;;;;9.77;100.00;96405.28;10524420;28;2636;-67
2023/02/18 05:20:48;;;;;;;;;;;;;;;9.75;100.00;96408.22;10525230;28;2089;-75
2023/02/18 05:25:50;;;;;;;;;;;;;;;9.69;100.00;96399.31;10525590;28;2191;-75
2023/02/18 05:30:52;;;;;;;;;;;;;;;9.62;100.00;96404.06;10525634;28;2263;-69
2023/02/18 05:35:55;;;;;;;;;;;;;;;9.66;100.00;96388.25;10520046;28;2700;-69
2023/02/18 05:40:57;;;;;;;;;;;;;;;9.74;100.00;96377.88;10521998;28;2510;-68
2023/02/18 05:45:59;;;;;;;;;;;;;;;9.73;100.00;96397.75;10521222;28;1968;-68
2023/02/18 05:51:02;;;;;;;;;;;;;;;9.68;100.00;96396.88;10521565;28;2588;-67
2023/02/18 05:56:04;;;;;;;;;;;;;;;9.58;100.00;96397.56;10525252;28;2280;-70
2023/02/18 06:01:07;;;;;;;;;;;;;;;9.54;100.00;96396.44;10543248;28;1906;-69
2023/02/18 06:06:09;;;;;;;;;;;;;;;9.65;100.00;96389.31;10530975;28;2281;-68
2023/02/18 06:11:12;;;;;;;;;;;;;;;9.78;100.00;96374.69;10531783;28;2545;-68
2023/02/18 06:16:15;;;;;;;;;;;;;;;9.83;100.00;96402.38;10529711;28;2720;-67
2023/02/18 06:21:17;;;;;;;;;;;;;;;9.88;100.00;96396.28;10531030;28;2119;-68
2023/02/18 06:26:19;;;;;;;;;;;;;;;9.97;100.00;96402.78;10531022;28;2342;-69
2023/02/18 06:31:22;;;;;;;;;;;;;;;9.97;100.00;96416.22;10522690;28;2561;-68
2023/02/18 06:36:25;;;;;;;;;;;;;;;10.03;100.00;96409.84;10528059;28;1962;-69
2023/02/18 06:41:27;;;;;;;;;;;;;;;10.05;100.00;96413.06;10521863;28;2616;-68
2023/02/18 06:46:29;;;;;;;;;;;;;;;9.98;100.00;96407.09;10527571;28;2857;-69
2023/02/18 06:51:32;;;;;;;;;;;;;;;10.01;100.00;96398.53;10533451;28;2181;-68
2023/02/18 06:56:34;;;;;;;;;;;;;;;10.03;100.00;96396.41;10527465;28;2550;-69
2023/02/18 07:01:37;;;;;;;;;;;;;;;9.99;100.00;96392.63;10527845;28;2849;-69
2023/02/18 07:06:39;;;;;;;;;;;;;;;10.02;100.00;96397.47;10520502;28;2890;-69
2023/02/18 07:11:41;;;;;;;;;;;;;;;10.26;100.00;96382.69;10531214;28;2169;-69
2023/02/18 07:16:44;;;;;;;;;;;;;;;10.36;100.00;96390.00;10523079;28;2612;-68
2023/02/18 07:21:46;;;;;;;;;;;;;;;10.60;100.00;96393.13;10524301;28;2585;-70
2023/02/18 07:26:48;;;;;;;;;;;;;;;10.69;100.00;96385.41;10532085;28;2908;-69
2023/02/18 07:31:50;;;;;;;;;;;;;;;10.83;100.00;96402.72;10528956;28;2566;-68
2023/02/18 07:36:53;;;;;;;;;;;;;;;10.87;100.00;96398.41;10528463;28;2565;-70
2023/02/18 07:41:55;;;;;;;;;;;;;;;10.83;100.00;96395.44;10518938;28;2576;-68
2023/02/18 07:46:58;;;;;;;;;;;;;;;10.96;100.00;96369.97;10520347;28;2210;-67
2023/02/18 07:52:00;;;;;;;;;;;;;;;11.14;100.00;96378.66;10528698;28;2960;-67
2023/02/18 07:57:05;;;;;;;;;;;;;;;11.36;100.00;96382.78;10523089;28;2893;-68
2023/02/18 08:02:09;;;;;;;;;;;;;;;11.28;100.00;96377.91;10525030;28;2152;-68
2023/02/18 08:07:11;;;;;;;;;;;;;;;11.23;100.00;96363.63;10505700;28;2660;-69
2023/02/18 08:12:13;;;;;;;;;;;;;;;11.16;100.00;96355.81;10520158;28;2398;-68
2023/02/18 08:17:16;;;;;;;;;;;;;;;11.03;100.00;96334.75;10523570;28;2727;-67
2023/02/18 08:22:19;;;;;;;;;;;;;;;10.90;100.00;96351.38;10527422;28;2129;-70
2023/02/18 08:27:21;;;;;;;;;;;;;;;11.03;100.00;96358.97;10523087;28;2759;-69
2023/02/18 08:32:23;;;;;;;;;;;;;;;11.16;100.00;96347.72;10521458;28;2640;-69
2023/02/18 08:37:26;;;;;;;;;;;;;;;11.26;100.00;96336.19;10534264;28;2572;-69
2023/02/18 08:42:28;;;;;;;;;;;;;;;11.15;100.00;96324.59;10525636;28;2275;-67
2023/02/18 08:47:30;;;;;;;;;;;;;;;11.22;100.00;96317.06;10530890;28;2253;-69
2023/02/18 08:52:53;;;;;;;;;;;;;;;11.15;100.00;96313.81;10522923;28;2632;-72
2023/02/18 08:57:55;;;;;;;;;;;;;;;10.93;100.00;96313.19;10530312;28;2857;-74
2023/02/18 09:02:57;;;;;;;;;;;;;;;10.87;100.00;96315.03;10518224;28;2709;-72
2023/02/18 09:07:59;;;;;;;;;;;;;;;11.05;100.00;96314.59;10536490;28;2663;-70
2023/02/18 09:13:02;;;;;;;;;;;;;;;11.18;100.00;96320.56;10520338;28;2712;-68
2023/02/18 09:18:04;;;;;;;;;;;;;;;11.21;100.00;96328.91;10524149;28;2161;-69
2023/02/18 09:23:06;;;;;;;;;;;;;;;11.40;100.00;96315.78;10524456;28;2921;-68
2023/02/18 09:28:09;;;;;;;;;;;;;;;11.75;100.00;96300.75;10521703;28;2653;-69
2023/02/18 09:33:11;;;;;;;;;;;;;;;11.66;100.00;96297.00;10523086;28;1946;-68
2023/02/18 09:38:13;;;;;;;;;;;;;;;11.57;100.00;96310.16;10520958;28;2541;-68
2023/02/18 09:43:16;;;;;;;;;;;;;;;11.58;100.00;96292.94;10519322;28;2573;-68
2023/02/18 09:48:18;;;;;;;;;;;;;;;11.82;100.00;96298.66;10522986;28;2917;-68
2023/02/18 09:53:21;;;;;;;;;;;;;;;11.93;100.00;96308.34;10516224;28;2189;-68
2023/02/18 09:58:23;;;;;;;;;;;;;;;12.28;100.00;96282.47;10519816;28;2172;-68
2023/02/18 10:03:26;;;;;;;;;;;;;;;12.61;100.00;96267.59;10515918;28;2909;-69
2023/02/18 10:08:28;;;;;;;;;;;;;;;12.81;100.00;96269.41;10520363;28;2545;-69
2023/02/18 10:13:31;;;;;;;;;;;;;;;12.94;100.00;96256.13;10519698;28;2238;-70
2023/02/18 10:18:33;;;;;;;;;;;;;;;12.95;100.00;96238.03;10520160;28;2225;-69
2023/02/18 10:23:35;;;;;;;;;;;;;;;12.71;100.00;96243.25;10517028;28;2704;-71
2023/02/18 10:28:38;;;;;;;;;;;;;;;12.74;100.00;96234.63;10517771;28;2564;-71
2023/02/18 10:33:40;;;;;;;;;;;;;;;12.91;100.00;96229.69;10515880;28;2192;-70
2023/02/18 10:38:43;;;;;;;;;;;;;;;13.01;100.00;96217.25;10523423;28;2125;-72
2023/02/18 10:43:45;;;;;;;;;;;;;;;13.14;100.00;96208.53;10524200;28;2125;-72
2023/02/18 10:48:47;;;;;;;;;;;;;;;13.32;100.00;96194.41;10528888;28;2541;-72
2023/02/18 10:53:50;;;;;;;;;;;;;;;13.25;100.00;96169.63;10510874;28;2494;-72
2023/02/18 10:58:53;;;;;;;;;;;;;;;13.56;100.00;96172.91;10528832;28;2379;-71
2023/02/18 11:03:56;;;;;;;;;;;;;;;13.65;100.00;96154.19;10526346;28;2833;-70
2023/02/18 11:09:01;;;;;;;;;;;;;;;13.92;100.00;96137.44;10524527;28;2810;-71
2023/02/18 11:14:04;;;;;;;;;;;;;;;14.18;100.00;96135.28;10521833;28;2157;-70
2023/02/18 11:19:06;;;;;;;;;;;;;;;14.24;100.00;96124.13;10529032;28;2217;-70
2023/02/18 11:24:08;;;;;;;;;;;;;;;14.66;100.00;96121.75;10527547;28;2180;-69
2023/02/18 11:29:11;;;;;;;;;;;;;;;14.86;100.00;96137.72;10521565;28;2901;-70
2023/02/18 11:34:13;;;;;;;;;;;;;;;14.60;100.00;96121.81;10522328;28;2968;-71
2023/02/18 11:39:16;;;;;;;;;;;;;;;15.03;100.00;96121.78;10526746;28;2717;-70
2023/02/18 11:44:18;;;;;;;;;;;;;;;14.76;100.00;96124.31;10525266;28;2901;-71
2023/02/18 11:49:21;;;;;;;;;;;;;;;14.37;100.00;96128.03;10521291;28;2687;-71
2023/02/18 11:54:23;;;;;;;;;;;;;;;14.43;100.00;96105.22;10508259;28;2620;-69
2023/02/18 11:59:26;;;;;;;;;;;;;;;14.56;100.00;96103.75;10523693;28;2291;-69
2023/02/18 12:04:28;;;;;;;;;;;;;;;14.71;100.00;96094.63;10523969;28;2660;-70
2023/02/18 12:09:30;;;;;;;;;;;;;;;14.55;100.00;96097.53;10526502;28;2966;-70
2023/02/18 12:14:33;;;;;;;;;;;;;;;14.67;100.00;96093.59;10509387;28;2913;-69
2023/02/18 12:19:36;;;;;;;;;;;;;;;14.83;100.00;96100.44;10525249;28;2954;-70
2023/02/18 12:24:38;;;;;;;;;;;;;;;14.64;100.00;96067.16;10525713;28;2561;-70
2023/02/18 12:29:41;;;;;;;;;;;;;;;14.91;100.00;96059.16;10529802;28;2986;-71
2023/02/18 12:34:43;;;;;;;;;;;;;;;14.67;100.00;96050.31;10527309;28;2090;-70
2023/02/18 12:39:46;;;;;;;;;;;;;;;14.46;100.00;96045.19;10527744;28;2865;-76
2023/02/18 12:44:48;;;;;;;;;;;;;;;14.46;100.00;96039.78;10528965;28;2925;-77
2023/02/18 12:49:51;;;;;;;;;;;;;;;14.24;100.00;96059.22;10517271;28;1970;-75
2023/02/18 12:54:53;;;;;;;;;;;;;;;14.10;100.00;96054.81;10514689;28;2956;-70
2023/02/18 12:59:55;;;;;;;;;;;;;;;14.32;100.00;96052.38;10515010;28;2862;-70
2023/02/18 13:04:58;;;;;;;;;;;;;;;14.64;100.00;96045.50;10524932;28;2842;-71
2023/02/18 13:10:00;;;;;;;;;;;;;;;14.34;100.00;96053.69;10526368;28;2896;-71
2023/02/18 13:15:03;;;;;;;;;;;;;;;14.60;100.00;96035.25;10523292;28;2877;-72
2023/02/18 13:20:06;;;;;;;;;;;;;;;14.51;100.00;96064.06;10517525;28;2901;-71
2023/02/18 13:25:08;;;;;;;;;;;;;;;14.21;100.00;96013.06;10502679;28;2116;-72
2023/02/18 13:30:11;;;;;;;;;;;;;;;14.14;100.00;96035.03;10513344;28;2893;-72
2023/02/18 13:35:13;;;;;;;;;;;;;;;14.19;100.00;96023.38;10525766;28;2990;-72
2023/02/18 13:40:16;;;;;;;;;;;;;;;14.02;100.00;96030.03;10526195;28;2794;-71
2023/02/18 13:45:18;;;;;;;;;;;;;;;13.96;100.00;96025.00;10527015;28;2918;-71
2023/02/18 13:50:21;;;;;;;;;;;;;;;14.13;100.00;96024.53;10521867;28;2994;-72
2023/02/18 13:55:23;;;;;;;;;;;;;;;14.01;100.00;96027.63;10522392;28;2830;-73
2023/02/18 14:00:25;;;;;;;;;;;;;;;13.69;100.00;96025.56;10517154;28;2538;-71
2023/02/18 14:05:28;;;;;;;;;;;;;;;13.85;100.00;96002.69;10516733;28;2119;-71
2023/02/18 14:10:30;;;;;;;;;;;;;;;13.87;100.00;96005.91;10521454;28;2900;-71
2023/02/18 14:15:33;;;;;;;;;;;;;;;13.85;100.00;95991.06;10518926;28;2138;-72
2023/02/18 14:20:36;;;;;;;;;;;;;;;13.60;100.00;95994.88;10528807;28;2833;-73
2023/02/18 14:25:39;;;;;;;;;;;;;;;13.64;100.00;95995.91;10527011;28;2288;-73
2023/02/18 14:30:41;;;;;;;;;;;;;;;13.30;100.00;96007.59;10527335;28;2748;-72
2023/02/18 14:35:43;;;;;;;;;;;;;;;13.28;100.00;96023.25;10526099;28;2573;-71
2023/02/18 14:40:46;;;;;;;;;;;;;;;13.12;100.00;95995.59;10529824;28;2141;-72
2023/02/18 14:45:48;;;;;;;;;;;;;;;13.09;100.00;96011.53;10524293;28;2188;-72
2023/02/18 14:50:51;;;;;;;;;;;;;;;13.28;100.00;96014.38;10532622;28;2918;-71
2023/02/18 14:55:54;;;;;;;;;;;;;;;13.08;100.00;95997.25;10515711;28;2861;-71
2023/02/18 15:00:56;;;;;;;;;;;;;;;13.09;100.00;96000.75;10532929;28;2341;-69
2023/02/18 15:05:59;;;;;;;;;;;;;;;12.95;100.00;95996.00;10528517;28;2885;-71
2023/02/18 15:11:02;;;;;;;;;;;;;;;13.00;100.00;95984.38;10525577;28;2133;-71
2023/02/18 15:16:04;;;;;;;;;;;;;;;12.95;100.00;96001.41;10528074;28;2961;-72
2023/02/18 15:21:07;;;;;;;;;;;;;;;12.86;100.00;96013.88;10526602;28;2537;-71
2023/02/18 15:26:10;;;;;;;;;;;;;;;12.88;100.00;96005.50;10528568;28;2937;-71
2023/02/18 15:31:13;;;;;;;;;;;;;;;12.83;100.00;96009.03;10527235;28;2223;-72
2023/02/18 15:36:16;;;;;;;;;;;;;;;12.64;100.00;96008.09;10527471;28;2562;-71
2023/02/18 15:41:19;;;;;;;;;;;;;;;12.65;100.00;96012.41;10531643;28;2909;-69
2023/02/18 15:46:22;;;;;;;;;;;;;;;12.54;100.00;96002.81;10522195;28;2647;-69
2023/02/18 15:51:25;;;;;;;;;;;;;;;12.41;100.00;96012.31;10523374;28;2317;-70
2023/02/18 15:56:27;;;;;;;;;;;;;;;12.32;100.00;96013.97;10541261;28;2837;-72
2023/02/18 16:01:30;;;;;;;;;;;;;;;12.22;100.00;96014.84;10526550;28;2822;-71
2023/02/18 16:06:32;;;;;;;;;;;;;;;12.17;100.00;96018.38;10525541;28;3141;-73
2023/02/18 16:11:35;;;;;;;;;;;;;;;12.12;100.00;96026.47;10530995;28;2565;-73
2023/02/18 16:16:39;;;;;;;;;;;;;;;12.03;100.00;96019.25;10523959;28;2576;-71
2023/02/18 16:21:42;;;;;;;;;;;;;;;11.94;100.00;96028.97;10526339;28;2886;-75
2023/02/18 16:26:44;;;;;;;;;;;;;;;11.85;100.00;96018.78;10528096;28;3376;-75
2023/02/18 16:31:47;;;;;;;;;;;;;;;11.74;100.00;96024.44;10525794;28;2145;-73
2023/02/18 16:42:10;;;;;;;;;;;;;;;11.63;100.00;96020.97;10503339;28;2870;-70
2023/02/18 16:47:12;;;;;;;;;;;;;;;11.57;100.00;96016.69;10526877;28;2177;-70
2023/02/18 16:52:15;;;;;;;;;;;;;;;11.48;100.00;96027.22;10525030;28;2974;-70
2023/02/18 16:57:18;;;;;;;;;;;;;;;11.46;100.00;96007.84;10525739;28;2223;-70
2023/02/18 17:02:20;;;;;;;;;;;;;;;11.40;100.00;96021.59;10524598;28;2173;-74
2023/02/18 17:07:23;;;;;;;;;;;;;;;11.43;100.00;96037.97;10518227;28;2182;-71
2023/02/18 17:12:25;;;;;;;;;;;;;;;11.36;100.00;96043.66;10515385;28;2195;-71
2023/02/18 17:17:28;;;;;;;;;;;;;;;11.38;100.00;96041.47;10527052;28;2126;-71
2023/02/18 17:22:30;;;;;;;;;;;;;;;11.37;100.00;96061.41;10519538;28;2164;-71
2023/02/18 17:27:32;;;;;;;;;;;;;;;11.35;100.00;96054.69;10525653;28;2114;-71
2023/02/18 17:32:35;;;;;;;;;;;;;;;11.32;100.00;96064.13;10539343;28;2624;-70
2023/02/18 17:37:38;;;;;;;;;;;;;;;11.30;100.00;96063.56;10526787;28;2188;-70
2023/02/18 17:42:41;;;;;;;;;;;;;;;11.29;100.00;96080.81;10528554;28;2905;-70
2023/02/18 17:47:43;;;;;;;;;;;;;;;11.32;100.00;96066.81;10528613;28;2549;-71
2023/02/18 17:52:46;;;;;;;;;;;;;;;11.31;100.00;96081.31;10525003;28;1932;-71
2023/02/18 17:57:48;;;;;;;;;;;;;;;11.25;100.00;96084.28;10528130;28;3052;-71
2023/02/18 18:02:51;;;;;;;;;;;;;;;11.17;100.00;96093.72;10499246;28;3012;-71
2023/02/18 18:07:53;;;;;;;;;;;;;;;11.14;100.00;96096.16;10516471;28;2628;-71
2023/02/18 18:12:55;;;;;;;;;;;;;;;11.09;100.00;96102.34;10528977;28;2117;-71
2023/02/18 18:17:58;;;;;;;;;;;;;;;11.10;100.00;96102.06;10521425;28;2106;-70
2023/02/18 18:23:00;;;;;;;;;;;;;;;11.04;100.00;96094.25;10529370;28;2888;-70
2023/02/18 18:28:03;;;;;;;;;;;;;;;11.03;100.00;96092.66;10528847;28;2906;-71
2023/02/18 18:33:05;;;;;;;;;;;;;;;11.08;100.00;96087.28;10525616;28;1597;-72
2023/02/18 18:38:08;;;;;;;;;;;;;;;11.01;100.00;96066.03;10531328;28;2613;-72
2023/02/18 18:43:10;;;;;;;;;;;;;;;10.97;100.00;96091.03;10530576;28;2145;-71
2023/02/18 18:48:12;;;;;;;;;;;;;;;10.95;100.00;96067.09;10520691;28;2202;-71
2023/02/18 18:53:15;;;;;;;;;;;;;;;10.91;100.00;96071.38;10526541;28;2153;-70
2023/02/18 18:58:19;;;;;;;;;;;;;;;10.83;100.00;96082.69;10520237;28;2565;-71
2023/02/18 19:03:22;;;;;;;;;;;;;;;10.94;100.00;96076.25;10528026;28;2113;-71
2023/02/18 19:08:24;;;;;;;;;;;;;;;10.96;100.00;96081.34;10533641;28;2952;-70
2023/02/18 19:13:26;;;;;;;;;;;;;;;10.90;100.00;96088.59;10531163;28;2702;-71
2023/02/18 19:18:31;;;;;;;;;;;;;;;10.90;100.00;96090.50;10534865;28;2949;-70
2023/02/18 19:23:33;;;;;;;;;;;;;;;10.88;100.00;96093.44;10528757;28;2833;-72
2023/02/18 19:28:36;;;;;;;;;;;;;;;10.87;100.00;96102.56;10527041;28;2860;-71
2023/02/18 19:33:38;;;;;;;;;;;;;;;10.80;100.00;96116.28;10514025;28;2172;-74
2023/02/18 19:38:40;;;;;;;;;;;;;;;10.91;100.00;96119.00;10525141;28;2965;-72
2023/02/18 19:43:43;;;;;;;;;;;;;;;10.98;100.00;96119.53;10522788;28;2606;-71
2023/02/18 19:48:45;;;;;;;;;;;;;;;10.95;100.00;96110.13;10534241;28;2762;-72
2023/02/18 19:53:48;;;;;;;;;;;;;;;10.95;100.00;96120.88;10527723;28;2196;-71
2023/02/18 19:58:50;;;;;;;;;;;;;;;11.01;100.00;96145.91;10527823;28;2177;-71
2023/02/18 20:03:53;;;;;;;;;;;;;;;10.98;100.00;96139.16;10528620;28;3059;-71
2023/02/18 20:08:55;;;;;;;;;;;;;;;10.99;100.00;96156.91;10528838;28;2181;-76
2023/02/18 20:13:58;;;;;;;;;;;;;;;10.98;100.00;96152.63;10523981;28;2181;-74
2023/02/18 20:19:00;;;;;;;;;;;;;;;10.96;100.00;96143.22;10532555;28;2589;-72
2023/02/18 20:24:03;;;;;;;;;;;;;;;11.00;100.00;96155.03;10537264;28;2842;-72
2023/02/18 20:29:05;;;;;;;;;;;;;;;11.28;100.00;96146.47;10528096;28;2580;-70
2023/02/18 20:34:08;;;;;;;;;;;;;;;12.17;100.00;96149.63;10526594;28;2955;-73
2023/02/18 20:39:11;;;;;;;;;;;;;;;12.41;100.00;96145.22;10524779;28;2223;-71
2023/02/18 20:44:17;;;;;;;;;;;;;;;12.16;100.00;96145.31;10530756;28;2141;-72
2023/02/18 20:49:22;;;;;;;;;;;;;;;11.59;100.00;96141.09;10531575;28;2958;-73
2023/02/18 20:54:25;;;;;;;;;;;;;;;11.17;100.00;96157.50;10527633;28;2913;-70
2023/02/18 20:59:28;;;;;;;;;;;;;;;11.16;100.00;96148.63;10526975;28;2854;-69
2023/02/18 21:04:31;;;;;;;;;;;;;;;11.04;100.00;96145.38;10531576;28;2708;-71
2023/02/18 21:09:34;;;;;;;;;;;;;;;11.07;100.00;96150.22;10531053;28;2841;-70
2023/02/18 21:14:36;;;;;;;;;;;;;;;11.06;100.00;96138.63;10528902;28;2872;-71
2023/02/18 21:19:39;;;;;;;;;;;;;;;11.03;100.00;96143.75;10523795;28;2639;-71
2023/02/18 21:24:41;;;;;;;;;;;;;;;11.10;100.00;96138.91;10523737;28;3008;-71
2023/02/18 21:29:44;;;;;;;;;;;;;;;11.08;100.00;96133.81;10521578;28;2129;-70
2023/02/18 21:34:46;;;;;;;;;;;;;;;11.03;100.00;96133.00;10523743;28;2683;-70
2023/02/18 21:39:49;;;;;;;;;;;;;;;11.03;100.00;96135.69;10520304;28;2866;-71
2023/02/18 21:44:51;;;;;;;;;;;;;;;11.04;100.00;96148.06;10519149;28;2613;-70
2023/02/18 21:49:54;;;;;;;;;;;;;;;11.00;100.00;96128.13;10521986;28;2907;-71
2023/02/18 21:54:56;;;;;;;;;;;;;;;10.97;100.00;96142.94;10522782;28;2853;-68
2023/02/18 21:59:59;;;;;;;;;;;;;;;10.96;100.00;96133.25;10523274;28;2181;-70
2023/02/18 22:05:20;;;;;;;;;;;;;;;10.95;100.00;96144.28;10526676;28;2628;-70
2023/02/18 22:10:22;;;;;;;;;;;;;;;10.87;100.00;96136.72;10523343;28;2201;-70
2023/02/18 22:15:25;;;;;;;;;;;;;;;10.86;100.00;96145.88;10521859;28;2609;-68
2023/02/18 22:20:27;;;;;;;;;;;;;;;10.78;100.00;96131.88;10522589;28;2719;-70
2023/02/18 22:25:30;;;;;;;;;;;;;;;10.76;100.00;96144.78;10523687;28;2226;-69
2023/02/18 22:30:32;;;;;;;;;;;;;;;10.73;100.00;96133.75;10522612;28;2893;-70
2023/02/18 22:35:34;;;;;;;;;;;;;;;10.66;100.00;96141.25;10520352;28;2860;-75
2023/02/18 22:40:37;;;;;;;;;;;;;;;10.63;100.00;96123.78;10510879;28;2165;-70
2023/02/18 22:45:39;;;;;;;;;;;;;;;10.62;100.00;96126.72;10530536;28;2152;-70
2023/02/18 22:50:42;;;;;;;;;;;;;;;10.57;100.00;96124.84;10529379;28;2165;-70
2023/02/18 22:55:45;;;;;;;;;;;;;;;10.61;100.00;96135.88;10529861;28;2596;-70
2023/02/18 23:00:47;;;;;;;;;;;;;;;10.54;100.00;96130.75;10526555;28;2872;-70
2023/02/18 23:05:50;;;;;;;;;;;;;;;10.56;100.00;96123.25;10531650;28;2117;-69
2023/02/18 23:10:52;;;;;;;;;;;;;;;10.42;100.00;96130.97;10528338;28;3075;-71
2023/02/18 23:15:55;;;;;;;;;;;;;;;10.41;100.00;96126.66;10525851;28;2137;-70
2023/02/18 23:26:17;;;;;;;;;;;;;;;10.45;100.00;96121.59;10527187;28;2152;-67
2023/02/18 23:31:19;;;;;;;;;;;;;;;10.35;100.00;96121.53;10527773;28;2852;-68
2023/02/18 23:36:22;;;;;;;;;;;;;;;10.28;100.00;96111.84;10507907;28;2859;-72
2023/02/18 23:41:24;;;;;;;;;;;;;;;10.33;100.00;96121.00;10523493;28;2882;-71
2023/02/18 23:46:27;;;;;;;;;;;;;;;10.23;100.00;96106.44;10530644;28;2988;-71
2023/02/18 23:51:29;;;;;;;;;;;;;;;10.22;100.00;96101.31;10524854;28;2244;-72
2023/02/18 23:56:32;;;;;;;;;;;;;;;10.19;100.00;96091.09;10528487;28;2969;-67
